createdAt,value
2018-04-22T00:00:41.277Z,100325.05
2018-04-22T00:03:09.708Z,100316.06
2018-04-22T00:05:38.172Z,100311.16
2018-04-22T00:08:06.589Z,100307.11
2018-04-22T00:10:35.005Z,100306.16
2018-04-22T00:13:03.469Z,100309.45
2018-04-22T00:15:31.885Z,100312.38
2018-04-22T00:18:00.300Z,100310.52
2018-04-22T00:20:28.765Z,100305.39
2018-04-22T00:22:57.180Z,100302.88
2018-04-22T00:25:25.649Z,100298.40
2018-04-22T00:27:54.126Z,100291.03
2018-04-22T00:30:22.540Z,100291.62
2018-04-22T00:32:50.963Z,100298.33
2018-04-22T00:35:19.429Z,100297.65
2018-04-22T00:37:47.853Z,100294.52
2018-04-22T00:40:16.282Z,100287.06
2018-04-22T00:42:44.742Z,100287.41
2018-04-22T00:45:13.153Z,100284.79
2018-04-22T00:47:41.575Z,100287.59
2018-04-22T00:50:10.044Z,100277.42
2018-04-22T00:52:38.464Z,100284.22
2018-04-22T00:55:06.913Z,100271.36
2018-04-22T00:57:35.372Z,100264.77
2018-04-22T01:00:03.833Z,100268.45
2018-04-22T01:02:32.264Z,100270.75
2018-04-22T01:05:00.735Z,100267.02
2018-04-22T01:07:29.152Z,100267.00
2018-04-22T01:09:57.569Z,100267.34
2018-04-22T01:12:26.041Z,100267.45
2018-04-22T01:14:54.465Z,100268.67
2018-04-22T01:17:22.889Z,100267.94
2018-04-22T01:19:51.377Z,100255.80
2018-04-22T01:22:19.788Z,100260.05
2018-04-22T01:24:48.209Z,100251.86
2018-04-22T01:27:16.673Z,100254.34
2018-04-22T01:29:45.102Z,100252.53
2018-04-22T01:32:13.541Z,100250.98
2018-04-22T01:34:42.034Z,100250.59
2018-04-22T01:37:10.462Z,100238.86
2018-04-22T01:39:38.888Z,100238.55
2018-04-22T01:42:07.347Z,100247.53
2018-04-22T01:44:36.257Z,100244.14
2018-04-22T01:47:04.685Z,100237.68
2018-04-22T01:49:33.167Z,100240.40
2018-04-22T01:52:01.597Z,100237.88
2018-04-22T01:54:30.022Z,100237.98
2018-04-22T01:56:58.493Z,100235.97
2018-04-22T01:59:26.920Z,100239.18
2018-04-22T02:01:55.337Z,100232.69
2018-04-22T02:04:23.803Z,100231.29
2018-04-22T02:06:52.234Z,100225.60
2018-04-22T02:09:20.672Z,100223.34
2018-04-22T02:11:49.145Z,100219.09
2018-04-22T02:14:17.560Z,100213.76
2018-04-22T02:16:45.985Z,100216.58
2018-04-22T02:19:14.466Z,100216.89
2018-04-22T02:21:42.891Z,100215.80
2018-04-22T02:24:11.304Z,100204.66
2018-04-22T02:26:39.791Z,100204.34
2018-04-22T02:29:08.215Z,100200.13
2018-04-22T02:31:36.652Z,100201.60
2018-04-22T02:34:05.145Z,100190.94
2018-04-22T02:36:33.555Z,100195.88
2018-04-22T02:39:01.992Z,100192.30
2018-04-22T02:41:30.489Z,100187.31
2018-04-22T02:43:58.910Z,100188.86
2018-04-22T02:46:27.317Z,100188.88
2018-04-22T02:48:55.816Z,100184.80
2018-04-22T02:51:24.255Z,100186.41
2018-04-22T02:53:52.672Z,100185.92
2018-04-22T02:56:21.164Z,100176.95
2018-04-22T02:58:49.583Z,100183.36
2018-04-22T03:01:18.013Z,100171.54
2018-04-22T03:03:46.492Z,100164.28
2018-04-22T03:06:14.930Z,100162.62
2018-04-22T03:08:43.348Z,100166.77
2018-04-22T03:11:11.804Z,100160.30
2018-04-22T03:13:40.218Z,100162.25
2018-04-22T03:16:08.632Z,100163.68
2018-04-22T03:18:37.104Z,100155.40
2018-04-22T03:21:05.525Z,100157.95
2018-04-22T03:23:33.948Z,100153.78
2018-04-22T03:26:02.412Z,100156.58
2018-04-22T03:28:30.845Z,100152.19
2018-04-22T03:30:59.269Z,100153.77
2018-04-22T03:33:27.732Z,100148.55
2018-04-22T03:35:56.156Z,100150.81
2018-04-22T03:38:24.585Z,100141.33
2018-04-22T03:40:53.060Z,100142.79
2018-04-22T03:43:21.484Z,100144.55
2018-04-22T03:45:49.911Z,100142.92
2018-04-22T03:48:18.407Z,100138.84
2018-04-22T03:50:46.821Z,100131.94
2018-04-22T03:53:15.244Z,100133.47
2018-04-22T03:55:43.713Z,100124.81
2018-04-22T03:58:12.131Z,100132.22
2018-04-22T04:00:40.561Z,100121.87
2018-04-22T04:03:09.029Z,100126.44
2018-04-22T04:05:37.445Z,100132.45
2018-04-22T04:08:05.868Z,100129.45
2018-04-22T04:10:34.330Z,100126.56
2018-04-22T04:13:02.754Z,100122.42
2018-04-22T04:15:31.174Z,100123.95
2018-04-22T04:21:23.485Z,100116.77
2018-04-22T04:27:25.480Z,100108.80
2018-04-22T04:29:53.949Z,100100.37
2018-04-22T04:32:22.410Z,100104.80
2018-04-22T04:34:50.829Z,100108.10
2018-04-22T04:37:19.312Z,100104.67
2018-04-22T04:39:47.733Z,100105.97
2018-04-22T04:42:16.149Z,100102.19
2018-04-22T04:44:44.623Z,100095.98
2018-04-22T04:47:13.055Z,100090.44
2018-04-22T04:49:41.478Z,100100.78
2018-04-22T04:52:09.928Z,100098.14
2018-04-22T04:54:38.368Z,100090.95
2018-04-22T04:57:06.792Z,100095.59
2018-04-22T04:59:35.268Z,100100.81
2018-04-22T05:02:03.725Z,100099.86
2018-04-22T05:04:32.144Z,100094.73
2018-04-22T05:07:00.616Z,100092.95
2018-04-22T05:09:29.025Z,100097.72
2018-04-22T05:11:57.444Z,100095.30
2018-04-22T05:14:25.924Z,100101.86
2018-04-22T05:16:54.345Z,100102.20
2018-04-22T05:19:22.779Z,100093.23
2018-04-22T05:21:51.237Z,100094.69
2018-04-22T05:24:20.049Z,100100.27
2018-04-22T05:26:48.469Z,100098.09
2018-04-22T05:29:16.929Z,100089.88
2018-04-22T05:31:45.351Z,100094.60
2018-04-22T05:34:13.766Z,100100.69
2018-04-22T05:36:42.233Z,100096.28
2018-04-22T05:39:10.644Z,100088.64
2018-04-22T05:41:39.066Z,100087.77
2018-04-22T05:44:07.548Z,100084.05
2018-04-22T05:46:35.972Z,100089.31
2018-04-22T05:49:04.388Z,100079.55
2018-04-22T05:51:32.844Z,100082.26
2018-04-22T05:54:01.265Z,100072.69
2018-04-22T05:56:29.676Z,100070.29
2018-04-22T05:58:58.149Z,100071.56
2018-04-22T06:01:26.569Z,100070.73
2018-04-22T06:03:54.987Z,100074.58
2018-04-22T06:06:23.462Z,100071.30
2018-04-22T06:08:51.881Z,100070.97
2018-04-22T06:11:20.345Z,100066.27
2018-04-22T06:13:48.808Z,100060.72
2018-04-22T06:16:17.249Z,100062.66
2018-04-22T06:18:45.668Z,100055.20
2018-04-22T06:21:14.128Z,100050.87
2018-04-22T06:23:42.548Z,100039.70
2018-04-22T06:26:10.980Z,100039.25
2018-04-22T06:28:39.444Z,100037.42
2018-04-22T06:31:07.879Z,100029.80
2018-04-22T06:33:36.328Z,100029.67
2018-04-22T06:36:04.817Z,100029.05
2018-04-22T06:38:33.234Z,100027.19
2018-04-22T06:41:01.644Z,100022.09
2018-04-22T06:43:30.104Z,100018.98
2018-04-22T06:45:58.530Z,100022.69
2018-04-22T06:48:26.940Z,100015.95
2018-04-22T06:50:55.408Z,100019.09
2018-04-22T06:53:23.825Z,100019.50
2018-04-22T06:55:52.260Z,100016.45
2018-04-22T06:58:20.724Z,100011.97
2018-04-22T07:00:49.155Z,100008.10
2018-04-22T07:03:17.580Z,100007.14
2018-04-22T07:05:46.064Z,100013.77
2018-04-22T07:08:14.495Z,100006.16
2018-04-22T07:10:43.232Z,100003.42
2018-04-22T07:13:11.705Z,100004.33
2018-04-22T07:15:40.154Z,100006.62
2018-04-22T07:18:08.565Z,100009.28
2018-04-22T07:20:37.046Z,100009.14
2018-04-22T07:23:05.484Z,100015.67
2018-04-22T07:25:33.914Z,100007.14
2018-04-22T07:28:02.376Z,100009.31
2018-04-22T07:30:30.796Z,99999.55
2018-04-22T07:32:59.201Z,99991.65
2018-04-22T07:35:27.662Z,100000.08
2018-04-22T07:37:56.188Z,100002.89
2018-04-22T07:40:24.633Z,100002.45
2018-04-22T07:42:53.101Z,100008.38
2018-04-22T07:45:21.518Z,100005.24
2018-04-22T07:47:49.936Z,100000.53
2018-04-22T07:50:18.389Z,99995.42
2018-04-22T07:52:46.806Z,99991.99
2018-04-22T07:55:15.229Z,99990.72
2018-04-22T07:57:43.703Z,99996.37
2018-04-22T08:00:12.356Z,99990.42
2018-04-22T08:02:40.792Z,99987.65
2018-04-22T08:05:09.303Z,99991.94
2018-04-22T08:07:37.721Z,99988.67
2018-04-22T08:10:06.189Z,99983.73
2018-04-22T08:12:34.652Z,99981.25
2018-04-22T08:15:03.093Z,99971.47
2018-04-22T08:17:31.567Z,99975.61
2018-04-22T08:20:00.105Z,99974.28
2018-04-22T08:22:28.543Z,99963.36
2018-04-22T08:24:57.077Z,99957.20
2018-04-22T08:27:25.553Z,99957.64
2018-04-22T08:29:54.000Z,99959.39
2018-04-22T08:32:22.414Z,99960.42
2018-04-22T08:34:50.890Z,99961.27
2018-04-22T08:37:19.315Z,99958.41
2018-04-22T08:39:47.742Z,99949.57
2018-04-22T08:42:16.194Z,99940.61
2018-04-22T08:44:44.616Z,99941.11
2018-04-22T08:47:13.112Z,99940.66
2018-04-22T08:49:41.564Z,99939.02
2018-04-22T08:52:10.054Z,99946.27
2018-04-22T08:54:38.472Z,99945.14
2018-04-22T08:57:06.921Z,99942.11
2018-04-22T08:59:35.347Z,99934.45
2018-04-22T09:02:03.766Z,99935.30
2018-04-22T09:04:32.556Z,99932.61
2018-04-22T09:07:00.977Z,99928.59
2018-04-22T09:09:29.402Z,99924.73
2018-04-22T09:11:57.876Z,99934.10
2018-04-22T09:14:26.302Z,99935.76
2018-04-22T09:16:54.742Z,99919.37
2018-04-22T09:19:23.219Z,99923.44
2018-04-22T09:21:51.640Z,99908.81
2018-04-22T09:24:20.072Z,99903.28
2018-04-22T09:26:48.562Z,99895.76
2018-04-22T09:29:17.025Z,99894.41
2018-04-22T09:31:45.480Z,99896.30
2018-04-22T09:34:13.929Z,99884.72
2018-04-22T09:36:42.357Z,99881.34
2018-04-22T09:39:10.818Z,99878.08
2018-04-22T09:41:39.289Z,99877.85
2018-04-22T09:44:07.707Z,99874.64
2018-04-22T09:46:36.136Z,99876.42
2018-04-22T09:49:04.613Z,99861.90
2018-04-22T09:51:33.037Z,99867.08
2018-04-22T09:54:01.489Z,99858.45
2018-04-22T09:56:29.965Z,99852.16
2018-04-22T09:58:58.389Z,99849.69
2018-04-22T10:01:32.533Z,99845.91
2018-04-22T10:04:00.973Z,99841.63
2018-04-22T10:06:29.388Z,99835.78
2018-04-22T10:08:57.856Z,99830.88
2018-04-22T10:11:26.281Z,99832.58
2018-04-22T10:13:54.697Z,99830.78
2018-04-22T10:16:23.173Z,99828.63
2018-04-22T10:18:51.598Z,99830.98
2018-04-22T10:21:20.057Z,99822.79
2018-04-22T10:23:48.558Z,99821.70
2018-04-22T10:26:17.017Z,99825.51
2018-04-22T10:28:45.444Z,99822.83
2018-04-22T10:31:13.906Z,99822.89
2018-04-22T10:33:42.340Z,99815.07
2018-04-22T10:36:10.808Z,99817.83
2018-04-22T10:38:39.277Z,99822.11
2018-04-22T10:41:07.704Z,99811.23
2018-04-22T10:43:36.129Z,99809.23
2018-04-22T10:46:04.593Z,99807.59
2018-04-22T10:48:33.014Z,99804.83
2018-04-22T10:51:01.430Z,99800.26
2018-04-22T10:53:29.925Z,99792.44
2018-04-22T10:55:58.345Z,99786.50
2018-04-22T10:58:26.780Z,99779.77
2018-04-22T11:00:55.248Z,99776.56
2018-04-22T11:03:23.672Z,99773.91
2018-04-22T11:05:52.132Z,99764.00
2018-04-22T11:08:20.600Z,99768.03
2018-04-22T11:10:49.069Z,99753.83
2018-04-22T11:13:17.501Z,99753.02
2018-04-22T11:15:46.017Z,99752.30
2018-04-22T11:18:14.439Z,99751.10
2018-04-22T11:20:42.872Z,99743.55
2018-04-22T11:23:11.340Z,99735.31
2018-04-22T11:25:39.761Z,99729.33
2018-04-22T11:28:08.199Z,99724.04
2018-04-22T11:30:36.793Z,99728.15
2018-04-22T11:33:05.216Z,99723.86
2018-04-22T11:35:33.657Z,99714.61
2018-04-22T11:38:02.164Z,99705.02
2018-04-22T11:40:30.589Z,99701.13
2018-04-22T11:42:59.032Z,99702.42
2018-04-22T11:45:27.512Z,99701.56
2018-04-22T11:47:55.929Z,99701.52
2018-04-22T11:50:24.348Z,99701.03
2018-04-22T11:52:52.816Z,99689.25
2018-04-22T11:55:21.243Z,99693.65
2018-04-22T11:57:49.672Z,99694.46
2018-04-22T12:00:18.204Z,99685.25
2018-04-22T12:02:46.656Z,99686.64
2018-04-22T12:05:15.119Z,99685.10
2018-04-22T12:07:43.593Z,99680.53
2018-04-22T12:10:12.020Z,99681.28
2018-04-22T12:12:40.454Z,99684.03
2018-04-22T12:15:08.940Z,99680.03
2018-04-22T12:17:37.372Z,99674.95
2018-04-22T12:20:05.814Z,99681.03
2018-04-22T12:22:34.284Z,99674.59
2018-04-22T12:25:02.728Z,99665.47
2018-04-22T12:27:31.180Z,99671.72
2018-04-22T12:29:59.652Z,99667.72
2018-04-22T12:32:28.087Z,99661.33
2018-04-22T12:34:56.536Z,99657.61
2018-04-22T12:37:25.017Z,99658.05
2018-04-22T12:39:53.438Z,99646.12
2018-04-22T12:42:21.880Z,99639.13
2018-04-22T12:44:50.356Z,99638.85
2018-04-22T12:47:18.797Z,99635.86
2018-04-22T12:49:47.221Z,99630.38
2018-04-22T12:52:15.704Z,99629.86
2018-04-22T12:54:44.125Z,99620.26
2018-04-22T12:57:12.554Z,99621.20
2018-04-22T12:59:41.017Z,99616.27
2018-04-22T13:02:09.440Z,99619.41
2018-04-22T13:04:37.884Z,99605.68
2018-04-22T13:07:06.364Z,99606.48
2018-04-22T13:09:34.787Z,99606.89
2018-04-22T13:12:03.233Z,99594.42
2018-04-22T13:14:31.703Z,99590.70
2018-04-22T13:17:00.128Z,99591.11
2018-04-22T13:19:28.557Z,99593.22
2018-04-22T13:21:57.016Z,99585.40
2018-04-22T13:24:25.467Z,99583.75
2018-04-22T13:26:53.905Z,99581.94
2018-04-22T13:29:22.390Z,99571.80
2018-04-22T13:31:51.348Z,99574.14
2018-04-22T13:34:19.776Z,99571.24
2018-04-22T13:36:48.240Z,99566.30
2018-04-22T13:39:16.677Z,99559.23
2018-04-22T13:41:45.112Z,99551.41
2018-04-22T13:44:13.599Z,99549.13
2018-04-22T13:46:42.113Z,99548.34
2018-04-22T13:49:10.539Z,99534.36
2018-04-22T13:51:39.019Z,99528.28
2018-04-22T13:54:07.466Z,99523.05
2018-04-22T13:56:35.902Z,99515.70
2018-04-22T13:59:04.469Z,99512.53
2018-04-22T14:01:32.909Z,99511.05
2018-04-22T14:04:01.341Z,99510.57
2018-04-22T14:06:29.944Z,99502.88
2018-04-22T14:08:58.380Z,99496.66
2018-04-22T14:11:26.810Z,99488.59
2018-04-22T14:13:55.297Z,99477.78
2018-04-22T14:16:23.753Z,99475.58
2018-04-22T14:18:52.171Z,99472.19
2018-04-22T14:21:20.651Z,99471.41
2018-04-22T14:23:49.069Z,99458.77
2018-04-22T14:26:17.496Z,99462.73
2018-04-22T14:28:45.976Z,99459.02
2018-04-22T14:31:14.404Z,99462.78
2018-04-22T14:33:42.841Z,99465.85
2018-04-22T14:36:11.360Z,99469.03
2018-04-22T14:38:39.785Z,99468.73
2018-04-22T14:41:08.209Z,99461.59
2018-04-22T14:43:36.676Z,99458.73
2018-04-22T14:46:13.928Z,99456.53
2018-04-22T14:48:54.142Z,99451.14
2018-04-22T14:51:22.557Z,99455.38
2018-04-22T14:53:50.983Z,99442.56
2018-04-22T14:56:19.453Z,99445.67
2018-04-22T14:58:47.864Z,99439.63
2018-04-22T15:01:16.282Z,99444.87
2018-04-22T15:03:44.736Z,99442.81
2018-04-22T15:06:13.173Z,99430.34
2018-04-22T15:08:41.613Z,99422.92
2018-04-22T15:11:10.076Z,99421.44
2018-04-22T15:13:38.502Z,99412.44
2018-04-22T15:16:06.938Z,99412.86
2018-04-22T15:18:35.407Z,99419.31
2018-04-22T15:21:03.922Z,99409.73
2018-04-22T15:23:32.337Z,99411.92
2018-04-22T15:26:00.784Z,99416.73
2018-04-22T15:28:29.452Z,99421.27
2018-04-22T15:30:58.146Z,99421.34
2018-04-22T15:33:26.628Z,99419.95
2018-04-22T15:35:55.149Z,99418.05
2018-04-22T15:38:23.621Z,99420.39
2018-04-22T15:40:52.307Z,99416.84
2018-04-22T15:43:20.753Z,99419.72
2018-04-22T15:45:49.174Z,99415.88
2018-04-22T15:48:17.632Z,99409.71
2018-04-22T15:50:46.043Z,99411.49
2018-04-22T15:53:14.469Z,99414.97
2018-04-22T15:55:42.995Z,99415.94
2018-04-22T15:58:11.750Z,99414.02
2018-04-22T16:00:40.441Z,99416.74
2018-04-22T16:03:09.185Z,99404.81
2018-04-22T16:05:37.644Z,99406.58
2018-04-22T16:08:06.325Z,99396.98
2018-04-22T16:10:34.848Z,99403.86
2018-04-22T16:13:03.268Z,99398.54
2018-04-22T16:15:31.864Z,99390.87
2018-04-22T16:18:00.327Z,99386.34
2018-04-22T16:20:28.736Z,99382.06
2018-04-22T16:22:57.157Z,99381.95
2018-04-22T16:25:25.612Z,99376.19
2018-04-22T16:27:54.031Z,99374.55
2018-04-22T16:30:22.448Z,99367.16
2018-04-22T16:32:50.905Z,99363.72
2018-04-22T16:35:19.373Z,99360.30
2018-04-22T16:37:47.769Z,99356.34
2018-04-22T16:40:16.229Z,99352.36
2018-04-22T16:42:44.671Z,99348.80
2018-04-22T16:45:13.088Z,99336.75
2018-04-22T16:47:41.553Z,99326.20
2018-04-22T16:50:09.980Z,99322.50
2018-04-22T16:52:38.395Z,99313.89
2018-04-22T16:55:06.870Z,99331.69
2018-04-22T16:57:35.277Z,99333.47
2018-04-22T17:00:03.740Z,99342.55
2018-04-22T17:02:32.200Z,99348.16
2018-04-22T17:05:00.621Z,99346.64
2018-04-22T17:07:29.063Z,99349.92
2018-04-22T17:09:57.544Z,99340.44
2018-04-22T17:12:25.985Z,99333.17
2018-04-22T17:14:54.462Z,99331.11
2018-04-22T17:17:22.932Z,99334.64
2018-04-22T17:19:51.348Z,99350.17
2018-04-22T17:22:19.766Z,99373.00
2018-04-22T17:24:48.241Z,99387.88
2018-04-22T17:27:16.652Z,99410.16
2018-04-22T17:29:45.064Z,99492.14
2018-04-22T17:32:13.933Z,99580.02
2018-04-22T17:34:42.351Z,99592.73
2018-04-22T17:37:11.473Z,99628.03
2018-04-22T17:39:39.938Z,99574.55
2018-04-22T17:42:08.349Z,99569.34
2018-04-22T17:44:36.761Z,99545.03
2018-04-22T17:47:05.227Z,99536.84
2018-04-22T17:49:33.647Z,99558.84
2018-04-22T17:52:02.072Z,99554.16
2018-04-22T17:54:30.534Z,99549.58
2018-04-22T17:56:58.953Z,99567.21
2018-04-22T17:59:27.359Z,99570.81
2018-04-22T18:01:55.804Z,99551.48
2018-04-22T18:04:24.208Z,99548.85
2018-04-22T18:06:52.608Z,99566.18
2018-04-22T18:09:21.073Z,99554.54
2018-04-22T18:11:49.489Z,99557.96
2018-04-22T18:14:17.896Z,99550.84
2018-04-22T18:16:46.380Z,99514.59
2018-04-22T18:19:14.796Z,99493.13
2018-04-22T18:21:43.206Z,99459.34
2018-04-22T18:24:11.671Z,99449.14
2018-04-22T18:26:40.088Z,99437.16
2018-04-22T18:29:08.493Z,99419.63
2018-04-22T18:31:36.964Z,99420.17
2018-04-22T18:34:05.389Z,99436.13
2018-04-22T18:36:34.232Z,99447.93
2018-04-22T18:39:02.676Z,99460.23
2018-04-22T18:41:31.096Z,99474.48
2018-04-22T18:43:59.496Z,99475.16
2018-04-22T18:46:27.958Z,99485.16
2018-04-22T18:48:56.372Z,99487.77
2018-04-22T18:51:24.792Z,99471.46
2018-04-22T18:53:53.257Z,99479.20
2018-04-22T18:56:21.687Z,99492.48
2018-04-22T18:58:50.100Z,99491.33
2018-04-22T19:01:18.544Z,99496.63
2018-04-22T19:03:46.949Z,99496.30
2018-04-22T19:06:15.360Z,99481.74
2018-04-22T19:08:43.820Z,99500.03
2018-04-22T19:11:12.220Z,99510.66
2018-04-22T19:13:40.627Z,99506.69
2018-04-22T19:16:09.076Z,99510.75
2018-04-22T19:18:37.489Z,99505.84
2018-04-22T19:21:05.893Z,99516.81
2018-04-22T19:23:34.348Z,99522.54
2018-04-22T19:26:02.760Z,99530.21
2018-04-22T19:31:05.797Z,99547.12
2018-04-22T19:33:34.202Z,99546.53
2018-04-22T19:36:02.613Z,99546.63
2018-04-22T19:38:31.062Z,99538.04
2018-04-22T19:40:59.469Z,99527.09
2018-04-22T19:43:27.873Z,99513.89
2018-04-22T19:45:56.308Z,99503.87
2018-04-22T19:48:24.721Z,99492.95
2018-04-22T19:50:53.129Z,99491.00
2018-04-22T19:53:21.589Z,99489.02
2018-04-22T19:55:50.004Z,99491.92
2018-04-22T19:58:18.404Z,99493.90
2018-04-22T20:00:46.852Z,99504.24
2018-04-22T20:03:15.255Z,99505.34
2018-04-22T20:05:43.652Z,99510.88
2018-04-22T20:08:12.117Z,99513.58
2018-04-22T20:10:40.538Z,99523.14
2018-04-22T20:13:08.943Z,99526.63
2018-04-22T20:15:37.481Z,99536.05
2018-04-22T20:18:05.886Z,99534.79
2018-04-22T20:20:34.290Z,99522.63
2018-04-22T20:23:02.740Z,99514.30
2018-04-22T20:25:31.153Z,99510.80
2018-04-22T20:27:59.567Z,99505.49
2018-04-22T20:30:28.019Z,99504.17
2018-04-22T20:32:56.433Z,99510.17
2018-04-22T20:35:24.840Z,99522.45
2018-04-22T20:37:53.296Z,99526.52
2018-04-22T20:40:21.710Z,99527.06
2018-04-22T20:42:50.124Z,99504.42
2018-04-22T20:45:18.576Z,99519.81
2018-04-22T20:47:46.985Z,99528.63
2018-04-22T20:50:15.404Z,99526.86
2018-04-22T20:52:43.864Z,99527.97
2018-04-22T20:55:12.284Z,99531.81
2018-04-22T20:57:40.705Z,99534.61
2018-04-22T21:00:09.158Z,99532.12
2018-04-22T21:02:37.560Z,99542.42
2018-04-22T21:05:05.980Z,99548.36
2018-04-22T21:07:34.444Z,99543.34
2018-04-22T21:10:02.871Z,99538.88
2018-04-22T21:12:31.284Z,99542.13
2018-04-22T21:14:59.742Z,99563.22
2018-04-22T21:17:28.156Z,99567.19
2018-04-22T21:19:56.573Z,99566.34
2018-04-22T21:22:25.024Z,99567.70
2018-04-22T21:24:53.439Z,99560.22
2018-04-22T21:27:21.857Z,99553.59
2018-04-22T21:29:50.315Z,99545.58
2018-04-22T21:32:18.726Z,99540.91
2018-04-22T21:34:47.137Z,99523.03
2018-04-22T21:37:15.615Z,99527.28
2018-04-22T21:39:44.032Z,99519.98
2018-04-22T21:42:12.432Z,99515.71
2018-04-22T21:44:40.877Z,99502.83
2018-04-22T21:47:09.299Z,99502.45
2018-04-22T21:49:37.718Z,99513.98
2018-04-22T21:52:06.184Z,99514.68
2018-04-22T21:54:34.592Z,99508.67
2018-04-22T21:57:03.000Z,99502.75
2018-04-22T21:59:31.455Z,99498.63
2018-04-22T22:01:59.847Z,99495.38
2018-04-22T22:04:28.304Z,99501.53
2018-04-22T22:06:56.736Z,99494.27
2018-04-22T22:09:25.202Z,99490.01
2018-04-22T22:11:53.605Z,99475.87
2018-04-22T22:14:22.053Z,99474.95
2018-04-22T22:16:50.458Z,99473.40
2018-04-22T22:19:18.900Z,99478.16
2018-04-22T22:21:47.348Z,99472.28
2018-04-22T22:24:15.747Z,99494.40
2018-04-22T22:26:44.144Z,99509.14
2018-04-22T22:29:12.594Z,99502.90
2018-04-22T22:31:41.004Z,99501.85
2018-04-22T22:34:09.412Z,99503.01
2018-04-22T22:36:37.856Z,99499.70
2018-04-22T22:39:06.298Z,99496.57
2018-04-22T22:41:34.717Z,99495.22
2018-04-22T22:44:03.165Z,99490.87
2018-04-22T22:46:31.591Z,99490.97
2018-04-22T22:49:00.004Z,99490.34
2018-04-22T22:51:28.454Z,99484.66
2018-04-22T22:53:56.866Z,99493.46
2018-04-22T22:56:25.285Z,99494.39
2018-04-22T22:58:53.732Z,99495.44
2018-04-22T23:01:22.136Z,99492.20
2018-04-22T23:03:50.544Z,99493.97
2018-04-22T23:06:18.987Z,99490.45
2018-04-22T23:08:47.388Z,99492.83
2018-04-22T23:11:15.804Z,99500.70
2018-04-22T23:13:44.251Z,99494.90
2018-04-22T23:16:12.661Z,99500.48
2018-04-22T23:18:41.064Z,99504.24
2018-04-22T23:21:09.514Z,99498.12
2018-04-22T23:23:37.917Z,99488.06
2018-04-22T23:26:06.323Z,99488.05
2018-04-22T23:28:34.768Z,99484.41
2018-04-22T23:31:03.171Z,99488.88
2018-04-22T23:33:31.576Z,99480.27
2018-04-22T23:36:00.025Z,99482.66
2018-04-22T23:38:28.433Z,99474.02
2018-04-22T23:40:56.841Z,99474.36
2018-04-22T23:43:25.296Z,99471.75
2018-04-22T23:45:53.709Z,99471.02
2018-04-22T23:48:22.124Z,99468.13
2018-04-22T23:50:50.571Z,99467.51
2018-04-22T23:53:18.988Z,99470.61
2018-04-22T23:55:47.394Z,99474.23
2018-04-22T23:58:15.840Z,99467.27
